Becket Corners, Massachusetts
Current Conditions -  °F | °C
As of 1:54 AM on Saturday 20 Dec 2014 (Local Time) from KPSF Reporting Station
Scattered Clouds Scattered Clouds  
Wind Chill: -12°   Ceiling: Unl
Heat Index: -6°   Visibility: 10mi
Dew Point: -9°   Wind: 9mph
Humidity: 81%   Direction: 320°NW
Pressure: 30.13"   Gusts: NA
Location:  42.3623°N, 73.1505°W
Report Text: KPSF 200654Z AUTO 32008KT 10SM SCT019 M06/M09 A3013 RMK AO2 SLP222 T10611089
Loading
Personal Weather Stations






























Interactive Weather Map New forecast layout! Learn more

10-Day Weather Forecast

Advertisements
Track Severe Weather on mobile